Curtis, Texas
Current Conditions -  °F | °C
As of 3:55 PM on Tuesday 25 Nov 2014 (Local Time) from KJAS Reporting Station
Clear Clear  
Wind Chill: 60°   Ceiling: Unl
Heat Index: 60°   Visibility: 10mi
Dew Point: 26°   Wind: 0mph
Humidity: 27%   Direction: NA
Pressure: 30.23"   Gusts: NA
Location:  30.9529°N, 94.0707°W
Report Text: KJAS 252155Z AUTO 00000KT 10SM CLR 16/M03 A3023 RMK AO2 T01551033
Loading
Personal Weather Stations






























Interactive Weather Map New forecast layout! Learn more

10-Day Weather Forecast

Advertisements
Track Severe Weather on mobile